createdAt,value
2016-04-10T00:00:26.530Z,15.87
2016-04-10T00:01:26.579Z,15.97
2016-04-10T00:02:26.597Z,15.87
2016-04-10T00:03:26.647Z,15.97
2016-04-10T00:04:26.666Z,15.97
2016-04-10T00:05:26.715Z,15.88
2016-04-10T00:06:26.702Z,15.87
2016-04-10T00:07:26.721Z,15.58
2016-04-10T00:08:26.755Z,16.06
2016-04-10T00:09:26.788Z,16.06
2016-04-10T00:10:26.822Z,16.36
2016-04-10T00:11:26.856Z,16.16
2016-04-10T00:12:26.890Z,15.87
2016-04-10T00:13:26.924Z,15.68
2016-04-10T00:14:26.926Z,16.16
2016-04-10T00:15:26.946Z,15.78
2016-04-10T00:16:26.979Z,15.87
2016-04-10T00:17:27.012Z,15.78
2016-04-10T00:18:27.063Z,15.97
2016-04-10T00:19:27.065Z,16.06
2016-04-10T00:20:27.084Z,16.16
2016-04-10T00:21:27.148Z,16.26
2016-04-10T00:22:27.151Z,16.16
2016-04-10T00:23:27.184Z,15.58
2016-04-10T00:24:27.204Z,15.68
2016-04-10T00:25:27.237Z,15.68
2016-04-10T00:26:27.256Z,15.68
2016-04-10T00:27:27.289Z,15.68
2016-04-10T00:28:27.323Z,15.68
2016-04-10T00:29:27.358Z,15.88
2016-04-10T00:30:27.375Z,15.69
2016-04-10T00:31:27.394Z,15.87
2016-04-10T00:32:27.413Z,15.87
2016-04-10T00:33:27.447Z,15.78
2016-04-10T00:34:27.480Z,15.68
2016-04-10T00:35:27.514Z,15.58
2016-04-10T00:36:27.549Z,15.78
2016-04-10T00:37:27.551Z,15.58
2016-04-10T00:38:27.586Z,15.68
2016-04-10T00:39:27.619Z,15.68
2016-04-10T00:40:27.638Z,15.78
2016-04-10T00:41:27.687Z,15.87
2016-04-10T00:42:27.721Z,15.87
2016-04-10T00:43:27.739Z,15.87
2016-04-10T00:44:27.757Z,15.87
2016-04-10T00:45:27.791Z,15.68
2016-04-10T00:46:27.825Z,15.58
2016-04-10T00:47:27.843Z,15.78
2016-04-10T00:48:27.877Z,15.58
2016-04-10T00:49:27.896Z,15.87
2016-04-10T00:50:27.929Z,15.68
2016-04-10T00:51:27.948Z,15.87
2016-04-10T00:52:27.982Z,15.78
2016-04-10T00:53:28.001Z,15.68
2016-04-10T00:54:28.018Z,15.97
2016-04-10T00:55:28.068Z,15.87
2016-04-10T00:56:28.086Z,15.68
2016-04-10T00:57:28.120Z,15.87
2016-04-10T00:58:28.139Z,15.58
2016-04-10T00:59:28.172Z,15.87
2016-04-10T01:00:28.191Z,15.87
2016-04-10T01:01:28.225Z,15.87
2016-04-10T01:02:28.259Z,15.87
2016-04-10T01:03:28.278Z,15.87
2016-04-10T01:04:28.311Z,15.87
2016-04-10T01:05:28.356Z,15.98
2016-04-10T01:06:28.428Z,15.98
2016-04-10T01:07:28.519Z,15.97
2016-04-10T01:08:28.562Z,15.87
2016-04-10T01:09:28.635Z,15.97
2016-04-10T01:10:28.678Z,15.87
2016-04-10T01:11:28.725Z,15.87
2016-04-10T01:12:28.774Z,16.06
2016-04-10T01:13:28.823Z,16.26
2016-04-10T01:14:28.871Z,16.26
2016-04-10T01:15:28.913Z,16.16
2016-04-10T01:16:28.937Z,16.06
2016-04-10T01:17:28.960Z,16.06
2016-04-10T01:18:28.983Z,16.06
2016-04-10T01:19:29.038Z,16.16
2016-04-10T01:20:29.059Z,16.26
2016-04-10T01:21:29.063Z,16.36
2016-04-10T01:22:29.021Z,16.36
2016-04-10T01:23:29.135Z,16.26
2016-04-10T01:24:29.171Z,16.16
2016-04-10T01:25:29.192Z,16.36
2016-04-10T01:26:29.225Z,16.06
2016-04-10T01:27:29.245Z,16.36
2016-04-10T01:28:29.295Z,16.27
2016-04-10T01:29:29.314Z,16.26
2016-04-10T01:30:29.364Z,16.36
2016-04-10T01:31:29.367Z,16.26
2016-04-10T01:32:29.401Z,16.16
2016-04-10T01:33:29.436Z,16.26
2016-04-10T01:34:29.454Z,16.36
2016-04-10T01:35:29.488Z,16.16
2016-04-10T01:36:29.507Z,16.26
2016-04-10T01:37:29.415Z,16.26
2016-04-10T01:38:29.575Z,16.26
2016-04-10T01:39:29.593Z,16.16
2016-04-10T01:40:29.612Z,16.27
2016-04-10T01:41:29.645Z,16.26
2016-04-10T01:42:29.664Z,16.26
2016-04-10T01:43:29.698Z,16.06
2016-04-10T01:44:29.731Z,16.26
2016-04-10T01:45:29.751Z,16.26
2016-04-10T01:46:29.800Z,16.16
2016-04-10T01:47:29.818Z,15.97
2016-04-10T01:48:29.868Z,16.26
2016-04-10T01:49:29.886Z,16.26
2016-04-10T01:50:29.920Z,16.06
2016-04-10T01:51:29.938Z,16.06
2016-04-10T01:52:29.972Z,16.16
2016-04-10T01:53:29.990Z,16.26
2016-04-10T01:54:30.024Z,16.26
2016-04-10T01:55:30.042Z,16.16
2016-04-10T01:56:30.092Z,16.16
2016-04-10T01:57:30.110Z,16.36
2016-04-10T01:58:30.144Z,15.97
2016-04-10T01:59:30.163Z,15.97
2016-04-10T02:00:30.181Z,16.17
2016-04-10T02:01:30.215Z,16.06
2016-04-10T02:02:30.233Z,15.97
2016-04-10T02:03:30.267Z,16.06
2016-04-10T02:04:30.316Z,16.06
2016-04-10T02:05:30.335Z,16.16
2016-04-10T02:06:30.337Z,16.16
2016-04-10T02:07:30.434Z,15.97
2016-04-10T02:08:30.406Z,15.97
2016-04-10T02:09:30.440Z,16.16
2016-04-10T02:10:30.474Z,15.97
2016-04-10T02:11:30.492Z,16.06
2016-04-10T02:12:30.557Z,16.26
2016-04-10T02:13:30.529Z,16.07
2016-04-10T02:14:30.593Z,16.26
2016-04-10T02:15:30.596Z,16.16
2016-04-10T02:16:30.615Z,16.06
2016-04-10T02:17:30.633Z,16.16
2016-04-10T02:18:30.668Z,16.26
2016-04-10T02:19:30.701Z,15.97
2016-04-10T02:20:30.735Z,16.26
2016-04-10T02:21:30.753Z,16.26
2016-04-10T02:22:30.787Z,16.16
2016-04-10T02:23:30.806Z,15.97
2016-04-10T02:24:30.839Z,15.97
2016-04-10T02:25:30.889Z,16.06
2016-04-10T02:26:30.907Z,16.26
2016-04-10T02:27:30.925Z,16.16
2016-04-10T02:28:30.975Z,16.16
2016-04-10T02:29:30.994Z,16.16
2016-04-10T02:30:30.997Z,16.16
2016-04-10T02:31:31.030Z,16.16
2016-04-10T02:32:31.063Z,16.06
2016-04-10T02:33:31.098Z,16.06
2016-04-10T02:34:31.116Z,16.06
2016-04-10T02:35:31.150Z,16.26
2016-04-10T02:36:31.168Z,16.26
2016-04-10T02:37:31.202Z,16.16
2016-04-10T02:38:31.236Z,16.06
2016-04-10T02:39:31.270Z,16.27
2016-04-10T02:40:31.288Z,16.06
2016-04-10T02:41:31.307Z,16.36
2016-04-10T02:42:31.341Z,16.26
2016-04-10T02:43:31.375Z,16.16
2016-04-10T02:44:31.393Z,16.26
2016-04-10T02:45:31.427Z,15.97
2016-04-10T02:46:31.445Z,16.36
2016-04-10T02:47:31.479Z,16.26
2016-04-10T02:48:31.498Z,16.16
2016-04-10T02:49:31.531Z,16.26
2016-04-10T02:50:31.550Z,16.36
2016-04-10T02:51:31.614Z,16.26
2016-04-10T02:52:31.633Z,16.06
2016-04-10T02:53:31.636Z,16.06
2016-04-10T02:54:31.670Z,16.36
2016-04-10T02:55:31.689Z,16.26
2016-04-10T02:56:31.722Z,16.26
2016-04-10T02:57:31.756Z,16.06
2016-04-10T02:58:31.790Z,16.26
2016-04-10T02:59:31.824Z,16.26
2016-04-10T03:00:31.842Z,16.16
2016-04-10T03:01:31.860Z,16.06
2016-04-10T03:02:31.910Z,16.26
2016-04-10T03:03:31.945Z,16.06
2016-04-10T03:04:31.963Z,16.26
2016-04-10T03:05:31.965Z,16.26
2016-04-10T03:06:31.999Z,16.36
2016-04-10T03:07:32.064Z,16.06
2016-04-10T03:08:32.086Z,16.16
2016-04-10T03:09:32.072Z,16.06
2016-04-10T03:10:32.122Z,16.07
2016-04-10T03:11:32.141Z,16.06
2016-04-10T03:12:32.158Z,16.26
2016-04-10T03:13:32.193Z,16.26
2016-04-10T03:14:32.226Z,16.26
2016-04-10T03:15:32.260Z,16.26
2016-04-10T03:16:32.326Z,16.06
2016-04-10T03:17:32.329Z,16.16
2016-04-10T03:18:32.332Z,16.06
2016-04-10T03:19:32.365Z,16.26
2016-04-10T03:20:32.399Z,16.16
2016-04-10T03:21:32.418Z,16.16
2016-04-10T03:22:32.670Z,16.16
2016-04-10T03:23:32.657Z,16.26
2016-04-10T03:24:32.753Z,16.27
2016-04-10T03:25:32.757Z,16.26
2016-04-10T03:26:32.806Z,16.26
2016-04-10T03:27:32.856Z,16.26
2016-04-10T03:28:32.812Z,16.26
2016-04-10T03:29:32.767Z,16.06
2016-04-10T03:30:32.754Z,16.26
2016-04-10T03:31:32.773Z,16.36
2016-04-10T03:32:32.822Z,16.16
2016-04-10T03:33:32.825Z,16.26
2016-04-10T03:34:32.827Z,16.16
2016-04-10T03:35:32.814Z,16.16
2016-04-10T03:36:32.817Z,16.16
2016-04-10T03:37:32.866Z,15.97
2016-04-10T03:38:32.901Z,16.26
2016-04-10T03:39:32.903Z,16.16
2016-04-10T03:40:32.984Z,16.16
2016-04-10T03:41:33.019Z,16.26
2016-04-10T03:42:33.005Z,16.16
2016-04-10T03:43:33.024Z,16.26
2016-04-10T03:44:33.057Z,16.16
2016-04-10T03:45:33.076Z,16.16
2016-04-10T03:46:33.110Z,16.06
2016-04-10T03:47:33.144Z,16.06
2016-04-10T03:48:33.163Z,16.36
2016-04-10T03:49:33.195Z,16.26
2016-04-10T03:50:33.230Z,16.06
2016-04-10T03:51:33.264Z,16.06
2016-04-10T03:52:33.282Z,16.06
2016-04-10T03:53:33.316Z,16.26
2016-04-10T03:54:33.334Z,16.16
2016-04-10T03:55:33.353Z,16.26
2016-04-10T03:56:33.387Z,16.16
2016-04-10T03:57:33.437Z,16.36
2016-04-10T03:58:33.439Z,16.06
2016-04-10T03:59:33.472Z,16.16
2016-04-10T04:00:33.506Z,16.26
2016-04-10T04:01:33.510Z,16.26
2016-04-10T04:02:33.559Z,16.06
2016-04-10T04:03:33.593Z,16.26
2016-04-10T04:04:33.595Z,16.16
2016-04-10T04:05:33.645Z,16.07
2016-04-10T04:06:33.664Z,16.26
2016-04-10T04:07:33.681Z,16.27
2016-04-10T04:08:33.716Z,16.26
2016-04-10T04:09:33.734Z,16.26
2016-04-10T04:10:33.769Z,16.16
2016-04-10T04:11:33.803Z,16.16
2016-04-10T04:12:33.820Z,16.16
2016-04-10T04:13:33.855Z,16.27
2016-04-10T04:14:33.888Z,16.06
2016-04-10T04:15:33.922Z,16.16
2016-04-10T04:16:33.941Z,16.16
2016-04-10T04:17:33.958Z,16.16
2016-04-10T04:18:33.993Z,16.06
2016-04-10T04:19:34.010Z,16.16
2016-04-10T04:20:34.045Z,16.06
2016-04-10T04:21:34.110Z,16.46
2016-04-10T04:22:34.113Z,16.26
2016-04-10T04:23:34.179Z,16.46
2016-04-10T04:24:34.165Z,16.46
2016-04-10T04:25:34.184Z,16.46
2016-04-10T04:26:34.218Z,16.17
2016-04-10T04:27:34.235Z,16.16
2016-04-10T04:28:34.317Z,16.26
2016-04-10T04:29:34.288Z,16.46
2016-04-10T04:30:34.322Z,16.16
2016-04-10T04:31:34.356Z,16.46
2016-04-10T04:32:34.374Z,16.46
2016-04-10T04:33:34.409Z,16.36
2016-04-10T04:34:34.442Z,16.46
2016-04-10T04:35:34.476Z,16.55
2016-04-10T04:36:34.509Z,16.36
2016-04-10T04:37:34.512Z,16.27
2016-04-10T04:38:34.547Z,16.27
2016-04-10T04:39:34.596Z,16.46
2016-04-10T04:40:34.614Z,16.46
2016-04-10T04:41:34.633Z,16.46
2016-04-10T04:42:34.683Z,16.36
2016-04-10T04:43:34.685Z,16.36
2016-04-10T04:44:34.702Z,16.36
2016-04-10T04:45:34.738Z,16.46
2016-04-10T04:46:34.786Z,16.16
2016-04-10T04:47:34.804Z,16.26
2016-04-10T04:48:34.824Z,16.26
2016-04-10T04:49:34.873Z,16.16
2016-04-10T04:50:34.880Z,16.55
2016-04-10T04:51:34.899Z,16.26
2016-04-10T04:52:34.964Z,16.27
2016-04-10T04:53:34.951Z,16.17
2016-04-10T04:54:34.985Z,16.16
2016-04-10T04:55:35.019Z,16.16
2016-04-10T04:56:35.053Z,16.16
2016-04-10T04:57:35.070Z,16.46
2016-04-10T04:58:35.121Z,16.46
2016-04-10T04:59:35.139Z,16.16
2016-04-10T05:00:35.156Z,16.26
2016-04-10T05:01:35.176Z,16.16
2016-04-10T05:02:35.256Z,16.17
2016-04-10T05:03:35.244Z,16.46
2016-04-10T05:04:35.262Z,16.26
2016-04-10T05:05:35.295Z,16.16
2016-04-10T05:06:35.330Z,16.36
2016-04-10T05:07:35.536Z,16.27
2016-04-10T05:08:35.522Z,16.26
2016-04-10T05:09:35.635Z,16.64
2016-04-10T05:10:35.622Z,16.55
2016-04-10T05:11:35.655Z,16.36
2016-04-10T05:12:35.706Z,16.64
2016-04-10T05:13:35.692Z,16.55
2016-04-10T05:14:35.680Z,16.46
2016-04-10T05:15:35.760Z,16.64
2016-04-10T05:16:35.700Z,16.64
2016-04-10T05:17:35.734Z,16.64
2016-04-10T05:18:35.738Z,16.64
2016-04-10T05:19:35.708Z,16.36
2016-04-10T05:20:35.710Z,16.74
2016-04-10T05:21:35.746Z,16.36
2016-04-10T05:22:35.763Z,16.64
2016-04-10T05:23:35.797Z,16.36
2016-04-10T05:24:35.816Z,16.36
2016-04-10T05:25:35.849Z,16.36
2016-04-10T05:26:35.868Z,16.46
2016-04-10T05:27:35.917Z,16.55
2016-04-10T05:28:35.920Z,16.66
2016-04-10T05:29:35.954Z,16.94
2016-04-10T05:30:35.972Z,16.66
2016-04-10T05:31:36.006Z,16.64
2016-04-10T05:32:36.040Z,16.64
2016-04-10T05:33:36.074Z,16.56
2016-04-10T05:34:36.093Z,16.74
2016-04-10T05:35:36.158Z,16.84
2016-04-10T05:36:36.144Z,16.74
2016-04-10T05:37:36.195Z,16.84
2016-04-10T05:38:36.213Z,16.74
2016-04-10T05:39:36.230Z,16.74
2016-04-10T05:40:36.312Z,16.84
2016-04-10T05:41:36.283Z,16.84
2016-04-10T05:42:36.302Z,16.64
2016-04-10T05:43:36.336Z,16.84
2016-04-10T05:44:36.369Z,16.74
2016-04-10T05:45:36.388Z,16.84
2016-04-10T05:46:36.437Z,16.84
2016-04-10T05:47:36.455Z,16.84
2016-04-10T05:48:36.490Z,16.84
2016-04-10T05:49:36.524Z,16.84
2016-04-10T05:50:36.542Z,17.03
2016-04-10T05:51:36.591Z,16.94
2016-04-10T05:52:36.594Z,16.84
2016-04-10T05:53:36.628Z,17.03
2016-04-10T05:54:36.646Z,17.03
2016-04-10T05:55:36.712Z,17.03
2016-04-10T05:56:36.714Z,17.13
2016-04-10T05:57:36.733Z,16.94
2016-04-10T05:58:36.751Z,16.84
2016-04-10T05:59:36.784Z,17.03
2016-04-10T06:00:36.818Z,16.74
2016-04-10T06:01:36.837Z,17.03
2016-04-10T06:02:36.870Z,16.94
2016-04-10T06:03:36.889Z,16.84
2016-04-10T06:04:36.908Z,16.84
2016-04-10T06:05:37.020Z,16.74
2016-04-10T06:06:36.975Z,17.03
2016-04-10T06:07:36.994Z,16.84
2016-04-10T06:08:37.090Z,16.75
2016-04-10T06:09:37.061Z,16.84
2016-04-10T06:10:37.095Z,17.03
2016-04-10T06:11:37.114Z,16.74
2016-04-10T06:12:37.147Z,16.85
2016-04-10T06:13:37.167Z,16.74
2016-04-10T06:14:37.216Z,16.74
2016-04-10T06:15:37.249Z,16.74
2016-04-10T06:16:37.252Z,16.74
2016-04-10T06:17:37.271Z,16.74
2016-04-10T06:18:37.304Z,16.74
2016-04-10T06:19:37.338Z,16.74
2016-04-10T06:20:37.357Z,16.74
2016-04-10T06:21:37.391Z,16.74
2016-04-10T06:22:37.424Z,16.84
2016-04-10T06:23:37.508Z,16.84
2016-04-10T06:24:37.470Z,16.74
2016-04-10T06:25:37.993Z,16.84
2016-04-10T06:26:37.522Z,16.94
2016-04-10T06:27:37.557Z,16.84
2016-04-10T06:28:37.605Z,16.74
2016-04-10T06:29:37.608Z,16.94
2016-04-10T06:30:37.643Z,16.74
2016-04-10T06:31:37.660Z,16.84
2016-04-10T06:32:37.695Z,16.84
2016-04-10T06:33:37.713Z,16.94
2016-04-10T06:34:37.732Z,16.94
2016-04-10T06:35:37.765Z,16.94
2016-04-10T06:36:37.799Z,16.84
2016-04-10T06:37:37.834Z,16.84
2016-04-10T06:38:37.929Z,16.84
2016-04-10T06:39:37.916Z,16.84
2016-04-10T06:40:37.920Z,16.74
2016-04-10T06:41:37.937Z,16.84
2016-04-10T06:42:37.956Z,16.74
2016-04-10T06:43:37.990Z,16.94
2016-04-10T06:44:38.023Z,16.94
2016-04-10T06:45:38.042Z,16.74
2016-04-10T06:46:38.076Z,16.64
2016-04-10T06:47:38.110Z,16.94
2016-04-10T06:48:38.128Z,16.84
2016-04-10T06:49:38.162Z,16.84
2016-04-10T06:50:38.181Z,16.94
2016-04-10T06:51:38.199Z,16.74
2016-04-10T06:52:38.249Z,16.84
2016-04-10T06:53:38.267Z,16.94
2016-04-10T06:54:38.300Z,16.84
2016-04-10T06:55:38.319Z,16.94
2016-04-10T06:56:38.368Z,16.84
2016-04-10T06:57:38.388Z,16.74
2016-04-10T06:58:38.405Z,16.74
2016-04-10T06:59:38.438Z,16.85
2016-04-10T07:00:38.458Z,16.74
2016-04-10T07:01:38.523Z,16.75
2016-04-10T07:02:38.509Z,16.75
2016-04-10T07:03:38.560Z,16.84
2016-04-10T07:04:38.578Z,16.84
2016-04-10T07:05:38.612Z,16.84
2016-04-10T07:06:38.629Z,16.64
2016-04-10T07:07:38.696Z,16.94
2016-04-10T07:08:38.682Z,16.64
2016-04-10T07:09:38.715Z,16.94
2016-04-10T07:10:38.750Z,17.03
2016-04-10T07:11:38.768Z,17.03
2016-04-10T07:12:38.802Z,17.03
2016-04-10T07:13:38.837Z,16.94
2016-04-10T07:14:38.854Z,16.84
2016-04-10T07:15:38.873Z,16.84
2016-04-10T07:16:38.906Z,17.03
2016-04-10T07:17:38.956Z,16.84
2016-04-10T07:18:38.975Z,16.74
2016-04-10T07:19:38.992Z,16.94
2016-04-10T07:20:39.042Z,17.13
2016-04-10T07:21:39.077Z,16.94
2016-04-10T07:22:39.079Z,16.84
2016-04-10T07:23:39.098Z,16.84
2016-04-10T07:24:39.131Z,16.84
2016-04-10T07:25:39.150Z,16.84
2016-04-10T07:26:39.199Z,16.84
2016-04-10T07:27:39.280Z,16.84
2016-04-10T07:28:39.236Z,16.94
2016-04-10T07:29:39.269Z,16.84
2016-04-10T07:30:39.288Z,17.32
2016-04-10T07:31:39.322Z,16.94
2016-04-10T07:32:39.356Z,16.84
2016-04-10T07:33:39.375Z,16.94
2016-04-10T07:34:39.440Z,17.03
2016-04-10T07:35:39.427Z,16.84
2016-04-10T07:36:39.445Z,16.84
2016-04-10T07:37:39.495Z,17.22
2016-04-10T07:38:39.512Z,17.22
2016-04-10T07:39:39.531Z,17.32
2016-04-10T07:40:39.564Z,17.32
2016-04-10T07:41:39.631Z,17.22
2016-04-10T07:42:39.633Z,17.32
2016-04-10T07:43:39.651Z,17.32
2016-04-10T07:44:39.717Z,17.22
2016-04-10T07:45:39.703Z,17.13
2016-04-10T07:46:39.769Z,17.24
2016-04-10T07:47:39.756Z,17.03
2016-04-10T07:48:39.790Z,17.14
2016-04-10T07:49:39.823Z,17.04
2016-04-10T07:50:39.872Z,17.22
2016-04-10T07:51:39.907Z,17.24
2016-04-10T07:52:39.894Z,17.24
2016-04-10T07:53:39.928Z,17.13
2016-04-10T07:54:39.962Z,17.13
2016-04-10T07:55:39.980Z,17.22
2016-04-10T07:56:40.014Z,17.13
2016-04-10T07:57:40.049Z,17.22
2016-04-10T07:58:40.066Z,17.13
2016-04-10T07:59:40.100Z,17.22
2016-04-10T08:00:40.119Z,17.22
2016-04-10T08:01:40.152Z,17.32
2016-04-10T08:02:40.172Z,17.24
2016-04-10T08:03:40.205Z,17.32
2016-04-10T08:04:40.239Z,17.32
2016-04-10T08:05:40.257Z,17.22
2016-04-10T08:06:40.307Z,17.42
2016-04-10T08:07:40.325Z,17.24
2016-04-10T08:08:40.359Z,17.22
2016-04-10T08:09:40.221Z,17.42
2016-04-10T08:10:40.395Z,17.22
2016-04-10T08:11:40.430Z,17.24
2016-04-10T08:12:40.448Z,17.32
2016-04-10T08:13:40.481Z,17.32
2016-04-10T08:14:40.501Z,17.52
2016-04-10T08:15:40.581Z,17.22
2016-04-10T08:16:40.567Z,17.03
2016-04-10T08:17:40.633Z,17.61
2016-04-10T08:18:40.620Z,17.42
2016-04-10T08:19:40.639Z,17.43
2016-04-10T08:20:40.673Z,17.42
2016-04-10T08:21:40.722Z,17.52
2016-04-10T08:22:40.725Z,17.61
2016-04-10T08:23:40.758Z,17.81
2016-04-10T08:24:40.792Z,17.52
2016-04-10T08:25:40.810Z,17.52
2016-04-10T08:26:40.830Z,17.52
2016-04-10T08:27:40.863Z,17.71
2016-04-10T08:28:40.897Z,17.32
2016-04-10T08:29:40.931Z,17.43
2016-04-10T08:30:40.949Z,17.42
2016-04-10T08:31:40.983Z,17.61
2016-04-10T08:32:41.018Z,17.42
2016-04-10T08:33:41.035Z,17.32
2016-04-10T08:34:41.069Z,17.32
2016-04-10T08:35:41.088Z,17.32
2016-04-10T08:36:41.121Z,17.42
2016-04-10T08:37:41.141Z,17.71
2016-04-10T08:38:41.174Z,17.62
2016-04-10T08:39:41.207Z,17.71
2016-04-10T08:40:41.243Z,17.82
2016-04-10T08:41:41.292Z,17.52
2016-04-10T08:42:41.278Z,17.81
2016-04-10T08:43:41.313Z,17.61
2016-04-10T08:44:41.346Z,17.9
2016-04-10T08:45:41.381Z,17.81
2016-04-10T08:46:41.399Z,17.71
2016-04-10T08:47:41.433Z,17.9
2016-04-10T08:48:41.450Z,17.52
2016-04-10T08:49:41.470Z,17.61
2016-04-10T08:50:41.503Z,17.61
2016-04-10T08:51:41.536Z,17.71
2016-04-10T08:52:41.571Z,17.42
2016-04-10T08:53:41.589Z,18.19
2016-04-10T08:54:41.655Z,18.21
2016-04-10T08:55:41.641Z,18.11
2016-04-10T08:56:41.676Z,18.19
2016-04-10T08:57:41.694Z,18
2016-04-10T08:58:41.727Z,18
2016-04-10T08:59:41.762Z,18.1
2016-04-10T09:00:41.796Z,18.39
2016-04-10T09:01:41.814Z,18.21
2016-04-10T09:02:41.832Z,18.29
2016-04-10T09:03:41.851Z,18.49
2016-04-10T09:04:41.900Z,18.39
2016-04-10T09:05:41.918Z,18.4
2016-04-10T09:06:41.952Z,18.19
2016-04-10T09:07:41.987Z,18.3
2016-04-10T09:08:42.004Z,18.1
2016-04-10T09:09:42.024Z,18.1
2016-04-10T09:10:42.088Z,18.19
2016-04-10T09:11:42.106Z,18.11
2016-04-10T09:12:42.125Z,18.19
2016-04-10T09:13:42.159Z,18.19
2016-04-10T09:14:42.193Z,18.19
2016-04-10T09:15:42.211Z,18.19
2016-04-10T09:16:42.261Z,18.39
2016-04-10T09:17:42.264Z,18.19
2016-04-10T09:18:42.312Z,18.3
2016-04-10T09:19:42.331Z,18.29
2016-04-10T09:20:42.333Z,18.49
2016-04-10T09:21:42.353Z,18.49
2016-04-10T09:22:42.589Z,18.59
2016-04-10T09:23:42.420Z,18.49
2016-04-10T09:24:42.454Z,18.49
2016-04-10T09:25:42.488Z,18.39
2016-04-10T09:26:42.522Z,18.4
2016-04-10T09:27:42.555Z,18.49
2016-04-10T09:28:42.621Z,18.49
2016-04-10T09:29:42.592Z,18.49
2016-04-10T09:30:42.611Z,18.87
2016-04-10T09:31:42.660Z,18.68
2016-04-10T09:32:42.679Z,18.79
2016-04-10T09:33:42.713Z,18.79
2016-04-10T09:34:42.730Z,19.07
2016-04-10T09:35:42.749Z,18.88
2016-04-10T09:36:42.783Z,18.77
2016-04-10T09:37:42.818Z,18.77
2016-04-10T09:38:42.835Z,18.77
2016-04-10T09:39:42.854Z,18.77
2016-04-10T09:40:42.888Z,18.79
2016-04-10T09:41:42.921Z,18.69
2016-04-10T09:42:42.971Z,18.68
2016-04-10T09:43:42.974Z,18.79
2016-04-10T09:44:43.007Z,18.59
2016-04-10T09:45:43.026Z,18.77
2016-04-10T09:46:43.045Z,18.59
2016-04-10T09:47:43.140Z,18.68
2016-04-10T09:48:43.112Z,18.59
2016-04-10T09:49:43.146Z,18.59
2016-04-10T09:50:43.165Z,18.59
2016-04-10T09:51:43.198Z,18.87
2016-04-10T09:52:43.248Z,18.87
2016-04-10T09:53:43.250Z,18.77
2016-04-10T09:54:43.300Z,18.77
2016-04-10T09:55:43.303Z,18.88
2016-04-10T09:56:43.337Z,18.98
2016-04-10T09:57:43.356Z,19.07
2016-04-10T09:58:43.405Z,19.07
2016-04-10T09:59:43.423Z,18.98
2016-04-10T10:00:43.441Z,18.97
2016-04-10T10:01:43.475Z,18.79
2016-04-10T10:02:43.494Z,19.07
2016-04-10T10:03:43.527Z,19.17
2016-04-10T10:04:43.561Z,19.27
2016-04-10T10:05:43.627Z,19.26
2016-04-10T10:06:43.614Z,19.35
2016-04-10T10:07:43.633Z,19.35
2016-04-10T10:08:43.670Z,19.17
2016-04-10T10:09:43.704Z,19.17
2016-04-10T10:10:43.707Z,19.27
2016-04-10T10:11:43.802Z,19.17
2016-04-10T10:12:43.862Z,19.27
2016-04-10T10:13:43.922Z,19.07
2016-04-10T10:14:43.983Z,19.26
2016-04-10T10:15:44.075Z,19.26
2016-04-10T10:16:44.116Z,19.26
2016-04-10T10:17:44.150Z,19.17
2016-04-10T10:18:44.199Z,19.35
2016-04-10T10:19:44.248Z,19.07
2016-04-10T10:20:44.298Z,19.37
2016-04-10T10:21:44.310Z,19.07
2016-04-10T10:22:44.349Z,19.85
2016-04-10T10:23:44.372Z,19.66
2016-04-10T10:24:44.443Z,19.55
2016-04-10T10:25:44.451Z,19.74
2016-04-10T10:26:44.487Z,19.66
2016-04-10T10:27:44.508Z,19.66
2016-04-10T10:28:44.528Z,19.74
2016-04-10T10:29:44.611Z,19.56
2016-04-10T10:30:44.600Z,19.55
2016-04-10T10:31:44.776Z,19.75
2016-04-10T10:32:44.670Z,19.74
2016-04-10T10:33:44.689Z,19.65
2016-04-10T10:34:44.708Z,19.65
2016-04-10T10:35:44.743Z,19.66
2016-04-10T10:36:44.777Z,19.46
2016-04-10T10:37:44.796Z,20.13
2016-04-10T10:38:44.830Z,19.85
2016-04-10T10:39:44.849Z,20.04
2016-04-10T10:40:44.883Z,19.74
2016-04-10T10:41:44.902Z,19.56
2016-04-10T10:42:44.950Z,19.66
2016-04-10T10:43:44.969Z,19.84
2016-04-10T10:44:44.988Z,19.65
2016-04-10T10:45:45.022Z,19.55
2016-04-10T10:46:45.041Z,19.46
2016-04-10T10:47:45.074Z,20.03
2016-04-10T10:48:45.092Z,20.14
2016-04-10T10:49:45.126Z,20.04
2016-04-10T10:50:45.160Z,20.03
2016-04-10T10:51:45.179Z,20.03
2016-04-10T10:52:45.212Z,20.04
2016-04-10T10:53:45.246Z,20.03
2016-04-10T10:54:45.279Z,20.03
2016-04-10T10:55:45.314Z,19.74
2016-04-10T10:56:45.317Z,19.75
2016-04-10T10:57:45.350Z,19.75
2016-04-10T10:58:45.384Z,19.74
2016-04-10T10:59:45.403Z,19.74
2016-04-10T11:00:45.437Z,19.84
2016-04-10T11:01:45.487Z,19.85
2016-04-10T11:02:45.489Z,19.84
2016-04-10T11:03:45.539Z,19.84
2016-04-10T11:04:45.573Z,19.84
2016-04-10T11:05:45.575Z,19.84
2016-04-10T11:06:45.640Z,19.94
2016-04-10T11:07:45.628Z,19.84
2016-04-10T11:08:45.646Z,19.75
2016-04-10T11:09:45.696Z,19.84
2016-04-10T11:10:45.714Z,19.84
2016-04-10T11:11:45.733Z,19.85
2016-04-10T11:12:45.782Z,19.75
2016-04-10T11:13:45.784Z,19.84
2016-04-10T11:14:45.819Z,19.74
2016-04-10T11:15:45.852Z,19.85
2016-04-10T11:16:45.871Z,19.85
2016-04-10T11:17:45.905Z,19.75
2016-04-10T11:18:45.954Z,19.84
2016-04-10T11:19:45.957Z,19.75
2016-04-10T11:20:45.974Z,19.74
2016-04-10T11:21:46.024Z,19.84
2016-04-10T11:22:46.043Z,19.74
2016-04-10T11:23:46.061Z,19.74
2016-04-10T11:24:46.096Z,19.75
2016-04-10T11:25:46.129Z,19.74
2016-04-10T11:26:46.148Z,19.95
2016-04-10T11:27:46.196Z,19.75
2016-04-10T11:28:46.246Z,19.85
2016-04-10T11:29:46.234Z,19.85
2016-04-10T11:30:46.283Z,19.75
2016-04-10T11:31:46.286Z,19.74
2016-04-10T11:32:46.319Z,19.84
2016-04-10T11:33:46.337Z,19.74
2016-04-10T11:34:46.372Z,19.94
2016-04-10T11:35:46.406Z,19.74
2016-04-10T11:36:46.424Z,19.95
2016-04-10T11:37:46.459Z,19.94
2016-04-10T11:38:46.492Z,19.75
2016-04-10T11:39:46.511Z,19.75
2016-04-10T11:40:46.545Z,19.75
2016-04-10T11:41:46.594Z,19.75
2016-04-10T11:42:46.597Z,19.85
2016-04-10T11:43:46.646Z,19.75
2016-04-10T11:44:46.649Z,19.74
2016-04-10T11:45:46.699Z,19.74
2016-04-10T11:46:46.702Z,19.74
2016-04-10T11:47:46.736Z,19.75
2016-04-10T11:48:46.769Z,19.74
2016-04-10T11:49:46.788Z,19.75
2016-04-10T11:50:46.884Z,19.95
2016-04-10T11:51:46.871Z,19.74
2016-04-10T11:52:46.905Z,19.75
2016-04-10T11:53:46.891Z,19.75
2016-04-10T11:54:46.926Z,19.74
2016-04-10T11:55:46.960Z,19.75
2016-04-10T11:56:46.978Z,19.74
2016-04-10T11:57:47.027Z,19.74
2016-04-10T11:58:47.062Z,19.66
2016-04-10T11:59:47.064Z,19.75
2016-04-10T12:00:47.098Z,19.75
2016-04-10T12:01:47.163Z,19.75
2016-04-10T12:02:47.151Z,19.75
2016-04-10T12:03:47.201Z,19.85
2016-04-10T12:04:47.203Z,19.74
2016-04-10T12:05:47.284Z,19.84
2016-04-10T12:06:47.286Z,19.65
2016-04-10T12:07:47.304Z,19.65
2016-04-10T12:08:47.323Z,20.13
2016-04-10T12:09:47.356Z,19.85
2016-04-10T12:10:47.375Z,19.85
2016-04-10T12:11:47.393Z,20.14
2016-04-10T12:12:47.427Z,20.14
2016-04-10T12:13:47.445Z,20.13
2016-04-10T12:14:47.479Z,20.23
2016-04-10T12:15:47.514Z,20.13
2016-04-10T12:16:47.547Z,20.14
2016-04-10T12:17:47.597Z,20.04
2016-04-10T12:18:47.584Z,20.14
2016-04-10T12:19:47.633Z,20.13
2016-04-10T12:20:47.652Z,19.85
2016-04-10T12:21:47.670Z,20.03
2016-04-10T12:22:47.736Z,19.95
2016-04-10T12:23:47.738Z,19.95
2016-04-10T12:24:47.929Z,19.94
2016-04-10T12:25:47.791Z,19.94
2016-04-10T12:26:47.825Z,20.24
2016-04-10T12:27:47.843Z,19.94
2016-04-10T12:28:47.861Z,19.65
2016-04-10T12:29:47.896Z,20.14
2016-04-10T12:30:47.945Z,19.85
2016-04-10T12:31:47.963Z,20.04
2016-04-10T12:32:47.981Z,20.04
2016-04-10T12:33:48.015Z,19.95
2016-04-10T12:34:48.033Z,19.94
2016-04-10T12:35:48.098Z,19.95
2016-04-10T12:36:48.101Z,20.14
2016-04-10T12:37:48.119Z,19.95
2016-04-10T12:38:48.153Z,20.14
2016-04-10T12:39:48.219Z,20.13
2016-04-10T12:40:48.206Z,20.23
2016-04-10T12:41:48.225Z,20.13
2016-04-10T12:42:48.258Z,20.23
2016-04-10T12:43:48.292Z,20.13
2016-04-10T12:44:48.310Z,20.23
2016-04-10T12:45:48.344Z,20.03
2016-04-10T12:46:48.363Z,20.13
2016-04-10T12:47:48.396Z,20.13
2016-04-10T12:48:48.430Z,20.13
2016-04-10T12:49:48.448Z,19.94
2016-04-10T12:50:48.482Z,20.24
2016-04-10T12:51:48.532Z,20.24
2016-04-10T12:52:48.519Z,20.32
2016-04-10T12:53:48.553Z,19.94